Portada
METAR-TAF:

METAR-TAF

Aeropuertos :

Aeropuerto de Oujda Angads

Oujda, Marruecos

latitud: 34-47N, longitud: 001-56W, altitud: 468 m

Observación

El informe se hizo hace 25 minutos, a las 04:30 UTC
Viento 5 kt del sur-suroeste, variando entre sur y oeste-suroeste
Temperatura 24°C
Humedad 57%
Presión 1015 hPa
Visibilidad 10 km o más
sin nubes por debajo de 1500 m y sin presencia de cumulonimbus.

METAR: GMFO 300430Z 21005KT 180V240 CAVOK 24/15 Q1015 NOSIG

Hora: 05:55 (04:55 UTC)

Pronóstico

El informe se hizo hace 5 horas y 55 minutos, a las 23:00 UTC
Pronóstico válido del 30 a las 00 UTC al 31 a las 06 UTC
Viento 5 kt del sur
Visibilidad 10 km o más
Escasas nubes a una altura de 3000 ft
Nubes dispersas a una altura de 10000 ft
Probabilidad 30% :
Temporalmente
del 30 a las 03 UTC al 30 a las 08 UTC
Visibilidad: 3000 m
neblina

TAF: GMFO 292300Z 3000/3106 18005KT 9999 FEW030 SCT100 PROB30 TEMPO 3003/3008 3000 BR

Observaciones y pronósticos meteorológicos de más de 4000 aeropuertos (mensajes METAR y TAF).

Los puntos amarillos y rojos representan las estaciones disponibles.

Ponga el ratón en el punto deseado para ver el nombre de la estación.

Haga clic para ver las observaciones y los pronósticos meteorológicos.

Para cambiar el mapa : haga clic en los botones verdes con una cruz de color negro para hacer un zoom, en el botón verde con un guión para alejar o en las flechas verdes para mapas adyacentes.


METAR-TAF: